NY15 weather

Public forecast

Using degrees Fahrenheit for public forecast. Weather courtesy of forecast.io.

Closest aviation weather report (METAR) to Lakeville Airport

Closest report is Dansville Municipal Airport, 15.3 nm (28.4 km) S. Retrieved 2020/08/15 14:54 UTC (1 hour ago):

KDSV 151454Z AUTO VRB03KT 10SM BKN075 BKN100 27/18 A3001 RMK AO2 SLP167 T02670183 58008

Closest aviation forecast (TAF) to Lakeville Airport

Closest forecast is Greater Rochester International Airport, 17.7 nm (32.7 km) N. Retrieved 2020/08/15 12:22 UTC (4 hours ago):

TAF KROC 151120Z 1512/1612 24004KT P6SM SCT080 FM151300 13005KT P6SM SCT250 FM151500 10005KT P6SM BKN200 FM160100 14007KT P6SM BKN100